logo
Search for airport 
image banner adimage banner adimage banner ad
image banner ad

EDDC - Dresden

Located in Dresden, Germany

ICAO - EDDC, IATA - DRS

Data provided by Airmate  

General information

Coordinates: N51°8'4" E13°46'5"
Elevation is 754 feet MSL.
Magnetic variation is 3.5000° East
View others Airports in Saxony

Operational data

Special qualification required
Current time UTC:
Current local time:
Weather
METAR: EDDC 171320Z AUTO 29009KT 250V350 CAVOK 25/12 Q1020 NOSIG
TAF: TAF EDDC 171100Z 1712/1812 27011KT 9999 FEW045 BECMG 1717/1720 31004KT
View NOTAMs / SUP AIP / TFR affecting this airport [VIEW]
Communications frequencies: [VIEW]

Runways:

RWY identifierQFULength (ft)Width (ft)SurfaceLDA (ft)
0441°9350197CONC9350
22221°9350197CONC8366

Airport contact information

Address: Dresden Germany

Handlers

Flughafen Dresden Gmbh - Gat

Flughafen Dresden Gmbh - Gat
[VIEW][VIEW]
+493518813220

Asd Airport Services Dresden Gmbh

Asd Airport Services Dresden Gmbh

Portground Gmbh

Portground Gmbh

Other aviation service providers

Aviation club (not for profit)

Luftsportverband Sachsen E.V.

Luftsportverband Sachsen E.V.
info@lsvsn.de+493512754021

Fliegerservice August Der Starke

Fliegerservice August Der Starke
info@flieger-august.de+49351-8815556
+49351-8815556
Rated:
View ratings:
[VIEW]

Satellite view of EDDC